Latest Weather Observations for Young

IDN60801

Issued at 3:52 am EST Friday 20 May 2022 (issued every 10 minutes, with the page automatically refreshed every 10 minutes)

About weather observations | Map of weather stations | Latest weather observations for NSW | Other Formats
Station Details ID: 073138 Name: YOUNG AIRPORT Lat: -34.25 Lon: 148.25 Height: 379.6 m
Data from the previous 72 hours. | See also: Recent months at Young
Date/Time
EST
Temp
°C
App
Temp
°C
Dew
Point
°C
Rel
Hum
%
Delta-T
°C
Wind Press
QNH
hPa
Press
MSL
hPa
Rain since
9am
mm
Dir  Spd
km/h
Gust
km/h
Spd
kts
Gust
kts
20/03:30am 2.6 -1.1 2.6 100 0.0 SSE 11 11 6 6 1029.3 1029.5 0.0
20/03:00am 2.1 -1.6 2.1 100 0.0 S 11 11 6 6 1029.3 1029.5 0.0
20/02:30am 2.7 -0.6 2.7 100 0.0 S 9 11 5 6 1029.2 1029.4 0.0
20/02:00am 2.4 -0.5 2.4 100 0.0 SSE 7 9 4 5 1029.0 1029.2 0.0
20/01:30am 1.6 -1.8 1.6 100 0.0 S 9 9 5 5 1029.0 1029.2 0.0
20/01:00am 1.6 -2.2 1.6 100 0.0 S 11 13 6 7 1028.9 1029.1 0.0
20/12:30am 1.2 -1.0 1.2 100 0.0 SSW 2 7 1 4 1029.1 1029.3 0.0
20/12:00am 1.2 -0.6 1.2 100 0.0 CALM 0 0 0 0 1029.0 1029.2 0.0
 
Date/Time
EST
Temp
°C
App
Temp
°C
Dew
Point
°C
Rel
Hum
%
Delta-T
°C
Wind Press
QNH
hPa
Press
MSL
hPa
Rain since
9am
mm
Dir  Spd
km/h
Gust
km/h
Spd
kts
Gust
kts
19/11:30pm 0.9 -1.3 0.9 100 0.0 SW 2 7 1 4 1029.0 1029.2 0.0
19/11:00pm 2.0 0.3 2.0 100 0.0 CALM 0 0 0 0 1028.9 1029.1 0.0
19/10:30pm 2.3 -0.7 2.3 100 0.0 S 7 9 4 5 1029.1 1029.3 0.0
19/10:00pm 1.9 -0.5 1.9 100 0.0 SSW 4 7 2 4 1029.2 1029.4 0.0
19/09:30pm 2.3 0.7 2.3 100 0.0 CALM 0 0 0 0 1029.1 1029.3 0.0
19/09:00pm 2.8 0.1 2.8 100 0.0 SSW 6 7 3 4 1029.1 1029.3 0.0
19/08:30pm 3.0 1.5 3.0 100 0.0 CALM 0 6 0 3 1028.9 1029.1 0.0
19/08:00pm 3.6 0.9 3.6 100 0.0 SSE 7 7 4 4 1028.6 1028.8 0.0
19/07:30pm 4.1 1.5 4.1 100 0.0 S 7 9 4 5 1028.4 1028.7 0.0
19/07:00pm 4.9 3.7 4.8 99 0.0 CALM 0 0 0 0 1028.4 1028.7 0.0
19/06:30pm 5.2 2.9 4.9 98 0.1 SSE 6 7 3 4 1028.0 1028.3 0.0
19/06:00pm 7.1 6.0 5.3 88 0.8 CALM 0 6 0 3 1028.0 1028.3 0.0
19/05:30pm 8.3 5.9 5.1 80 1.5 WSW 7 9 4 5 1027.5 1027.7 0.0
19/05:00pm 9.2 6.7 4.6 73 2.1 SW 7 9 4 5 1026.9 1027.1 0.0
19/04:55pm 9.7 7.2 4.9 72 2.2 WSW 7 9 4 5 1026.8 1027.0 0.0
19/04:30pm 11.3 8.4 4.7 64 3.1 SW 9 13 5 7 1026.6 1026.8 0.0
19/04:00pm 12.9 10.4 4.8 58 3.8 SW 7 11 4 6 1026.1 1026.3 0.0
19/03:30pm 12.7 9.0 4.2 56 3.9 SSW 13 17 7 9 1025.7 1026.0 0.0
19/03:00pm 13.1 9.5 5.0 58 3.8 SW 13 19 7 10 1025.6 1025.9 0.0
19/02:40pm 13.1 9.4 4.5 56 4.0 SSW 13 20 7 11 1025.4 1025.6 0.0
19/02:36pm 13.3 9.3 4.7 56 4.0 SSW 15 24 8 13 1025.4 1025.6 0.0
19/02:30pm 13.5 9.8 4.6 55 4.2 SW 13 24 7 13 1025.3 1025.5 0.0
19/02:16pm 13.5 10.0 5.4 58 3.9 SW 13 24 7 13 1025.5 1025.8 0.0
19/02:08pm 13.3 9.4 5.2 58 3.9 WSW 15 24 8 13 1025.3 1025.5 0.0
19/02:00pm 13.5 9.6 5.4 58 3.9 WSW 15 22 8 12 1025.3 1025.5 0.0
19/01:48pm 13.1 9.2 5.5 60 3.6 SW 15 20 8 11 1025.3 1025.5 0.0
19/01:30pm 13.2 9.3 5.4 59 3.7 WSW 15 24 8 13 1025.5 1025.8 0.0
19/01:00pm 13.0 9.1 5.4 60 3.6 SW 15 24 8 13 1025.9 1026.1 0.0
19/12:30pm 12.6 9.1 5.5 62 3.4 WSW 13 20 7 11 1026.3 1026.5 0.0
19/12:00pm 12.5 9.1 5.9 64 3.1 SW 13 20 7 11 1026.5 1026.7 0.0
19/11:30am 10.8 7.3 5.3 69 2.6 SW 13 19 7 10 1026.8 1027.0 0.0
19/11:00am 10.7 6.3 4.6 66 2.8 SW 17 22 9 12 1027.1 1027.3 0.0
19/10:52am 10.9 6.6 5.4 69 2.6 SW 17 20 9 11 1027.2 1027.4 0.0
19/10:34am 11.3 9.0 5.0 65 2.9 WSW 6 17 3 9 1027.4 1027.6 0.0
19/10:30am 11.1 9.3 5.6 69 2.6 NNW 4 15 2 8 1027.4 1027.6 0.0
19/10:00am 9.9 8.5 7.2 83 1.3 N 4 9 2 5 1027.4 1027.6 0.0
19/09:30am 8.3 7.9 8.2 99 0.0 CALM 0 2 0 1 1027.3 1027.5 0.0
19/09:00am 5.8 4.8 5.8 100 0.0 CALM 0 0 0 0 1027.3 1027.5 0.0
19/08:30am 2.1 -0.7 2.1 100 0.0 SSW 6 7 3 4 1027.1 1027.3 0.0
19/08:00am 0.4 -2.3 0.4 100 0.0 S 4 7 2 4 1027.0 1027.2 0.0
19/07:30am -0.7 -2.8 -0.7 100 0.0 CALM 0 0 0 0 1026.4 1026.6 0.0
19/07:00am -1.7 -3.9 -1.7 100 0.0 CALM 0 6 0 3 1026.3 1026.5 0.0
19/06:34am -1.6 -3.8 -1.6 100 0.0 CALM 0 0 0 0 1026.0 1026.2 0.0
19/06:30am -1.7 -3.9 -1.7 100 0.0 CALM 0 0 0 0 1026.0 1026.2 0.0
19/06:11am -1.4 -3.6 -1.4 100 0.0 CALM 0 6 0 3 1025.9 1026.1 0.0
19/06:08am -1.6 -4.2 -1.6 100 0.0 SSW 2 6 1 3 1025.9 1026.1 0.0
19/06:05am -1.2 -4.1 -1.2 100 0.0 SSW 4 6 2 3 1025.7 1026.0 0.0
19/06:00am -1.3 -4.6 -1.3 100 0.0 SSW 6 6 3 3 1025.7 1026.0 0.0
19/05:43am -1.4 -4.3 -1.4 100 0.0 SSW 4 7 2 4 1025.5 1025.8 0.0
19/05:37am -1.4 -3.6 -1.4 100 0.0 CALM 0 6 0 3 1025.4 1025.6 0.0
19/05:36am -1.5 -3.7 -1.5 100 0.0 CALM 0 0 0 0 1025.3 1025.5 0.0
19/05:30am -1.5 -3.7 -1.5 100 0.0 CALM 0 0 0 0 1025.2 1025.4 0.0
19/05:22am -1.3 -3.5 -1.3 100 0.0 CALM 0 0 0 0 1025.2 1025.4 0.0
19/05:00am -1.2 -3.4 -1.2 100 0.0 CALM 0 0 0 0 1025.4 1025.6 0.0
19/04:30am -1.0 -3.1 -1.0 100 0.0 CALM 0 0 0 0 1025.2 1025.4 0.0
19/04:00am -1.1 -3.2 -1.1 100 0.0 CALM 0 0 0 0 1025.1 1025.3 0.0
19/03:30am -0.8 -2.9 -0.8 100 0.0 CALM 0 0 0 0 1024.9 1025.1 0.0
19/03:00am -0.3 -3.1 -0.3 100 0.0 SSW 4 6 2 3 1024.9 1025.1 0.0
19/02:30am 0.3 -1.6 0.3 100 0.0 CALM 0 0 0 0 1024.9 1025.1 0.0
19/02:00am 0.7 -2.3 0.7 100 0.0 SW 6 7 3 4 1024.5 1024.7 0.0
19/01:30am 0.3 -1.6 0.3 100 0.0 CALM 0 0 0 0 1024.6 1024.8 0.0
19/01:00am 0.9 -2.1 0.9 100 0.0 SSW 6 7 3 4 1024.5 1024.7 0.0
19/12:30am 0.8 -1.4 0.8 100 0.0 S 2 7 1 4 1024.4 1024.6 0.0
19/12:00am 1.2 -0.6 1.2 100 0.0 CALM 0 0 0 0 1024.4 1024.6 0.0
 
Date/Time
EST
Temp
°C
App
Temp
°C
Dew
Point
°C
Rel
Hum
%
Delta-T
°C
Wind Press
QNH
hPa
Press
MSL
hPa
Rain since
9am
mm
Dir  Spd
km/h
Gust
km/h
Spd
kts
Gust
kts
18/11:30pm 1.0 -1.2 1.0 100 0.0 SW 2 7 1 4 1024.5 1024.7 0.0
18/11:00pm 1.6 -1.3 1.6 100 0.0 SW 6 7 3 4 1024.5 1024.7 0.0
18/10:30pm 1.9 -0.5 1.9 100 0.0 S 4 7 2 4 1024.6 1024.8 0.0
18/10:00pm 1.8 0.1 1.8 100 0.0 CALM 0 0 0 0 1024.6 1024.8 0.0
18/09:30pm 2.5 0.5 2.5 100 0.0 W 2 6 1 3 1024.3 1024.5 0.0
18/09:00pm 3.0 0.2 3.0 100 0.0 SW 7 9 4 5 1024.1 1024.3 0.0
18/08:30pm 3.1 1.6 3.1 100 0.0 CALM 0 6 0 3 1024.1 1024.3 0.0
18/08:00pm 3.4 2.0 3.4 100 0.0 CALM 0 0 0 0 1023.9 1024.1 0.0
18/07:30pm 4.6 3.4 4.6 100 0.0 CALM 0 0 0 0 1023.6 1023.8 0.0
18/07:00pm 5.9 4.6 5.8 99 0.0 SW 2 6 1 3 1023.4 1023.6 0.0
18/06:30pm 7.2 6.3 6.1 93 0.5 CALM 0 0 0 0 1023.4 1023.6 0.0
18/06:00pm 8.6 6.8 5.5 81 1.4 WSW 4 7 2 4 1022.8 1023.0 0.0
18/05:30pm 10.0 7.3 5.6 74 2.1 SW 9 11 5 6 1022.3 1022.5 0.0
18/05:00pm 12.0 7.9 6.1 67 2.8 WSW 17 24 9 13 1021.8 1022.0 0.0
18/04:30pm 12.6 9.1 7.1 69 2.7 WSW 15 24 8 13 1021.6 1021.8 0.0
18/04:00pm 13.7 8.7 6.6 62 3.5 WSW 22 33 12 18 1021.4 1021.6 0.0
18/03:30pm 13.9 10.9 7.7 66 3.1 WSW 13 22 7 12 1021.2 1021.4 0.0
18/03:00pm 13.5 9.0 6.1 61 3.6 W 19 30 10 16 1021.0 1021.1 0.0
18/02:30pm 14.0 9.2 5.6 57 4.1 W 20 35 11 19 1020.8 1020.9 0.0
18/02:00pm 14.2 9.7 6.1 58 3.9 W 19 30 10 16 1020.9 1021.0 0.0
18/01:30pm 13.7 8.6 6.1 60 3.7 WSW 22 35 12 19 1021.1 1021.3 0.0
18/01:00pm 13.9 9.5 6.7 62 3.5 W 19 28 10 15 1021.3 1021.5 0.0
18/12:30pm 13.9 9.4 6.3 60 3.7 W 19 28 10 15 1021.5 1021.7 0.0
18/12:00pm 13.4 9.2 5.8 60 3.7 WSW 17 33 9 18 1021.9 1022.1 0.0
18/11:30am 13.4 9.4 6.5 63 3.4 WSW 17 26 9 14 1022.2 1022.4 0.0
18/11:00am 13.5 9.0 6.1 61 3.6 WSW 19 28 10 15 1022.5 1022.7 0.0
18/10:30am 13.8 10.1 7.8 67 3.0 WSW 17 26 9 14 1022.6 1022.8 0.0
18/10:00am 13.0 9.4 8.5 74 2.3 WSW 17 30 9 16 1022.6 1022.8 0.0
18/09:30am 12.1 8.9 8.4 78 1.9 W 15 26 8 14 1022.5 1022.7 0.0
18/09:00am 11.1 9.1 8.8 86 1.2 WNW 9 15 5 8 1022.5 1022.7 0.0
18/08:30am 10.3 8.8 9.2 93 0.6 WNW 7 11 4 6 1022.1 1022.3 0.0
18/08:00am 9.6 8.2 9.6 100 0.0 NW 7 13 4 7 1022.0 1022.2 0.0
18/07:30am 7.7 5.5 7.7 100 0.0 N 9 9 5 5 1021.8 1022.0 0.0
18/07:00am 7.4 6.8 7.4 100 0.0 CALM 0 0 0 0 1021.7 1021.9 0.0
18/06:30am 7.4 6.4 7.4 100 0.0 N 2 7 1 4 1021.4 1021.6 0.0
18/06:00am 7.4 6.0 7.4 100 0.0 N 4 7 2 4 1020.9 1021.0 0.0
18/05:30am 7.6 7.0 7.6 100 0.0 CALM 0 0 0 0 1020.9 1021.0 0.0
18/05:00am 7.7 6.8 7.7 100 0.0 N 2 7 1 4 1020.7 1020.8 0.0
18/04:30am 7.7 7.2 7.7 100 0.0 CALM 0 0 0 0 1020.7 1020.8 0.0
18/04:00am 7.0 6.3 7.0 100 0.0 CALM 0 0 0 0 1020.7 1020.8 0.0
18/03:30am 6.8 5.7 6.8 100 0.0 N 2 7 1 4 1020.9 1021.0 0.0
18/03:00am 7.1 6.4 7.1 100 0.0 CALM 0 0 0 0 1020.9 1021.0 0.0
18/02:30am 7.2 6.6 7.2 100 0.0 CALM 0 0 0 0 1021.1 1021.3 0.0
18/02:00am 7.0 6.3 7.0 100 0.0 CALM 0 0 0 0 1021.1 1021.3 0.0
18/01:30am 6.8 6.1 6.8 100 0.0 CALM 0 0 0 0 1021.2 1021.4 0.0
18/01:00am 6.8 6.1 6.8 100 0.0 CALM 0 0 0 0 1021.4 1021.6 0.0
18/12:30am 7.2 6.6 7.2 100 0.0 CALM 0 0 0 0 1021.5 1021.7 0.0
18/12:00am 6.9 6.2 6.9 100 0.0 CALM 0 0 0 0 1021.6 1021.8 0.0
 
Date/Time
EST
Temp
°C
App
Temp
°C
Dew
Point
°C
Rel
Hum
%
Delta-T
°C
Wind Press
QNH
hPa
Press
MSL
hPa
Rain since
9am
mm
Dir  Spd
km/h
Gust
km/h
Spd
kts
Gust
kts
17/11:30pm 7.1 6.4 7.1 100 0.0 CALM 0 0 0 0 1021.8 1022.0 0.0
17/11:00pm 6.9 6.2 6.9 100 0.0 CALM 0 0 0 0 1021.9 1022.1 0.0
17/10:30pm 6.5 5.7 6.5 100 0.0 CALM 0 0 0 0 1021.9 1022.1 0.0
17/10:00pm 6.2 4.9 6.2 100 0.0 SSE 2 7 1 4 1022.0 1022.2 0.0
17/09:30pm 5.9 5.0 5.9 100 0.0 CALM 0 0 0 0 1021.9 1022.1 0.0
17/09:00pm 5.6 4.6 5.6 100 0.0 CALM 0 0 0 0 1021.8 1022.0 0.0
17/08:30pm 5.4 3.6 5.4 100 0.0 S 4 7 2 4 1021.8 1022.0 0.0
17/08:00pm 5.1 4.0 5.1 100 0.0 CALM 0 0 0 0 1021.6 1021.8 0.0
17/07:30pm 5.0 3.5 5.0 100 0.0 SSW 2 6 1 3 1021.6 1021.8 0.0
17/07:00pm 5.6 4.6 5.5 99 0.0 CALM 0 0 0 0 1021.3 1021.5 0.0
17/06:30pm 6.1 5.1 5.5 96 0.3 CALM 0 6 0 3 1021.0 1021.1 0.0
17/06:00pm 7.9 6.9 5.7 86 1.0 CALM 0 0 0 0 1020.8 1020.9 0.0
17/05:30pm 10.2 9.2 5.8 74 2.1 CALM 0 0 0 0 1020.5 1020.6 0.0
17/05:00pm 11.8 9.6 5.4 65 3.0 W 6 7 3 4 1020.4 1020.5 0.0
17/04:30pm 13.5 10.8 5.4 58 3.9 W 9 13 5 7 1020.1 1020.3 0.0
17/04:00pm 13.9 11.1 5.3 56 4.1 W 9 19 5 10 1020.1 1020.3 0.0
17/03:30pm 13.8 11.1 5.7 58 3.9 WSW 9 19 5 10 1020.3 1020.4 0.0
17/03:00pm 13.7 9.1 5.6 58 3.9 WSW 19 28 10 15 1020.3 1020.4 0.0
17/02:30pm 13.1 9.2 5.3 59 3.7 WSW 15 26 8 14 1020.1 1020.3 0.0
17/02:00pm 15.3 11.2 6.1 54 4.5 WSW 17 26 9 14 1020.1 1020.3 0.0
17/01:30pm 14.3 10.4 5.4 55 4.3 W 15 24 8 13 1020.5 1020.6 0.0
17/01:00pm 14.6 10.8 5.9 56 4.2 WSW 15 26 8 14 1020.9 1021.0 0.0
17/12:30pm 14.1 10.4 6.5 60 3.7 W 15 26 8 14 1021.1 1021.3 0.0
17/12:00pm 13.9 10.7 6.7 62 3.5 WSW 13 24 7 13 1021.3 1021.5 0.0
17/11:30am 13.6 10.0 6.7 63 3.4 WSW 15 24 8 13 1021.6 1021.8 0.0
17/11:00am 12.7 9.0 6.3 65 3.1 SW 15 20 8 11 1021.8 1022.0 0.0
17/10:30am 12.4 9.0 7.7 73 2.3 SW 15 20 8 11 1021.9 1022.1 0.0
17/10:00am 11.5 8.7 8.7 83 1.4 SW 13 20 7 11 1022.1 1022.3 0.0
17/09:30am 11.0 11.3 11.0 100 0.0 CALM 0 0 0 0 1022.1 1022.3 0.0
17/09:11am 9.1 8.9 9.1 100 0.0 CALM 0 0 0 0 1022.0 1022.2 0.0
17/09:00am 7.9 7.4 7.9 100 0.0 CALM 0 0 0 0 1021.9 1022.1 0.2
17/08:30am 5.5 4.5 5.5 100 0.0 CALM 0 0 0 0 1021.6 1021.8 0.2
17/08:00am 4.0 2.7 4.0 100 0.0 CALM 0 0 0 0 1021.3 1021.5 0.2
17/07:30am 2.9 1.4 2.9 100 0.0 CALM 0 0 0 0 1021.1 1021.3 0.2
17/07:00am 2.6 1.0 2.6 100 0.0 CALM 0 0 0 0 1020.7 1020.8 0.2
17/06:30am 3.2 1.7 3.2 100 0.0 CALM 0 0 0 0 1020.3 1020.4 0.2
17/06:00am 3.3 1.9 3.3 100 0.0 CALM 0 0 0 0 1019.7 1019.9 0.2
17/05:30am 3.4 2.0 3.4 100 0.0 CALM 0 0 0 0 1019.4 1019.6 0.2
17/05:00am 3.7 2.3 3.7 100 0.0 CALM 0 0 0 0 1019.1 1019.3 0.2
17/04:30am 4.2 2.9 4.2 100 0.0 CALM 0 0 0 0 1018.8 1018.9 0.2
17/04:12am 4.4 3.2 4.4 100 0.0 CALM 0 0 0 0 1018.7 1018.8 0.2
17/04:00am 4.7 3.5 4.7 100 0.0 CALM 0 0 0 0 1018.7 1018.8 0.2

Other formats

Comma delimited format used in spreadsheet applications
http://www.bom.gov.au/fwo/IDN60801/IDN60801.94712.axf

JavaScript Object Notation format (JSON) in row-major order
http://www.bom.gov.au/fwo/IDN60801/IDN60801.94712.json

Data quality

Most of these data are generated automatically and are frequently updated. Quality checks on data are not normally performed. It is possible for incorrect values to appear. Refer to information at About Latest Weather Observations and please check the disclaimer before using these data.